Terminal Aerodrome Forecast
Issued by NWS

Home | Current Version | Previous Version | Text Only | Print | Product List | Glossary On
Versions: 1 2 3 4 5 6 7 8 9 10 11 12 13 14 15 16 17 18 19
000
FTUS45 KABQ 220638 AAA
TAFTCC
TAF AMD
KTCC 220638Z 2207/2306 29011KT P6SM VCTS SCT050CB BKN090
     FM221000 36008KT P6SM BKN100
     FM221800 04011KT P6SM VCSH SCT030 BKN060 PROB30 2219/2222
      02016G26KT 6SM -TSRA SCT025 BKN050CB
     FM222200 04015G25KT 6SM -SHRA SCT020 BKN040
     FM230200 04008KT P6SM VCSH SCT015 BKN025=

USA.gov is the U.S. government's official web portal to all federal, state and local government web resources and services.